< < Back
Terminal Aerodrome Forecast


Current Version              Previous Versions:   1  2  3  4  5  6  7  8  9  

Terminal Aerodrome Forecast

212
FTUS42 KGSP 221400 AAA
TAFCLT
TAF AMD
KCLT 221453Z 2215/2312 01007KT P6SM SCT050
      TEMPO 2215/2218 02010G15KT
     FM222100 03007KT P6SM SCT250=



Latest METAR

372
SAUS70 KWBC 230200 RRA
MTRCLT
METAR KCLT 230152Z 10004KT 10SM BKN200 BKN250 20/13 A3015 RMK AO2 SLP202
T02000128


USA.gov is the U.S. government's official web portal to all federal, state and local government web resources and services.